sensor_id;sensor_type;location;lat;lon;timestamp;temperature;humidity
65995;HTU21D;52764;51.036;5.852;2022-09-09T00:02:21;18.61;76.76
65995;HTU21D;52764;51.036;5.852;2022-09-09T00:05:04;18.59;76.35
65995;HTU21D;52764;51.036;5.852;2022-09-09T00:07:44;18.56;76.41
65995;HTU21D;52764;51.036;5.852;2022-09-09T00:10:28;18.53;76.40
65995;HTU21D;52764;51.036;5.852;2022-09-09T00:13:18;18.44;76.70
65995;HTU21D;52764;51.036;5.852;2022-09-09T00:21:45;18.33;77.20
65995;HTU21D;52764;51.036;5.852;2022-09-09T00:24:24;18.32;77.18
65995;HTU21D;52764;51.036;5.852;2022-09-09T00:27:01;18.33;76.90
65995;HTU21D;52764;51.036;5.852;2022-09-09T00:29:38;18.33;76.92
65995;HTU21D;52764;51.036;5.852;2022-09-09T00:32:18;18.32;76.76
65995;HTU21D;52764;51.036;5.852;2022-09-09T00:37:45;18.25;76.75
65995;HTU21D;52764;51.036;5.852;2022-09-09T00:40:37;18.24;76.88
65995;HTU21D;52764;51.036;5.852;2022-09-09T00:46:32;18.28;76.95
65995;HTU21D;52764;51.036;5.852;2022-09-09T00:49:07;18.27;76.74
65995;HTU21D;52764;51.036;5.852;2022-09-09T00:59:51;18.22;76.47
65995;HTU21D;52764;51.036;5.852;2022-09-09T01:02:31;17.24;76.97
65995;HTU21D;52764;51.036;5.852;2022-09-09T01:05:10;18.06;76.79
65995;HTU21D;52764;51.036;5.852;2022-09-09T01:07:40;-4.91;76.86
65995;HTU21D;52764;51.036;5.852;2022-09-09T01:13:16;18.09;76.90
65995;HTU21D;52764;51.036;5.852;2022-09-09T01:15:46;18.10;76.79
65995;HTU21D;52764;51.036;5.852;2022-09-09T01:18:17;18.11;76.79
65995;HTU21D;52764;51.036;5.852;2022-09-09T01:23:42;18.10;76.79
65995;HTU21D;52764;51.036;5.852;2022-09-09T01:28:58;17.99;76.99
65995;HTU21D;52764;51.036;5.852;2022-09-09T01:34:29;17.85;77.24
65995;HTU21D;52764;51.036;5.852;2022-09-09T01:37:08;17.89;77.68
65995;HTU21D;52764;51.036;5.852;2022-09-09T01:39:40;17.95;77.34
65995;HTU21D;52764;51.036;5.852;2022-09-09T01:42:13;17.82;77.89
65995;HTU21D;52764;51.036;5.852;2022-09-09T01:44:40;17.76;78.05
65995;HTU21D;52764;51.036;5.852;2022-09-09T01:47:06;17.78;78.36
65995;HTU21D;52764;51.036;5.852;2022-09-09T01:49:34;17.80;78.33
65995;HTU21D;52764;51.036;5.852;2022-09-09T01:52:07;17.84;78.25
65995;HTU21D;52764;51.036;5.852;2022-09-09T01:54:37;17.90;78.10
65995;HTU21D;52764;51.036;5.852;2022-09-09T01:57:20;-5.15;77.84
65995;HTU21D;52764;51.036;5.852;2022-09-09T02:00:07;17.92;77.84
65995;HTU21D;52764;51.036;5.852;2022-09-09T02:06:32;-5.15;74.98
65995;HTU21D;52764;51.036;5.852;2022-09-09T02:09:12;17.95;77.75
65995;HTU21D;52764;51.036;5.852;2022-09-09T02:11:42;17.92;77.82
65995;HTU21D;52764;51.036;5.852;2022-09-09T02:14:30;17.91;78.04
65995;HTU21D;52764;51.036;5.852;2022-09-09T02:17:03;17.93;64.66
65995;HTU21D;52764;51.036;5.852;2022-09-09T02:19:59;-5.17;68.62
65995;HTU21D;52764;51.036;5.852;2022-09-09T02:22:47;17.91;78.22
65995;HTU21D;52764;51.036;5.852;2022-09-09T02:25:20;17.91;78.21
65995;HTU21D;52764;51.036;5.852;2022-09-09T02:27:50;17.84;78.14
65995;HTU21D;52764;51.036;5.852;2022-09-09T02:30:18;17.93;76.37
65995;HTU21D;52764;51.036;5.852;2022-09-09T02:32:54;17.93;78.26
65995;HTU21D;52764;51.036;5.852;2022-09-09T02:35:28;17.97;78.22
65995;HTU21D;52764;51.036;5.852;2022-09-09T02:38:00;17.89;65.00
65995;HTU21D;52764;51.036;5.852;2022-09-09T02:40:27;17.95;78.11
65995;HTU21D;52764;51.036;5.852;2022-09-09T02:42:58;-7.12;78.12
65995;HTU21D;52764;51.036;5.852;2022-09-09T02:45:38;17.99;78.04
65995;HTU21D;52764;51.036;5.852;2022-09-09T02:48:25;17.03;76.27
65995;HTU21D;52764;51.036;5.852;2022-09-09T02:53:57;18.14;77.92
65995;HTU21D;52764;51.036;5.852;2022-09-09T02:56:30;18.21;77.67
65995;HTU21D;52764;51.036;5.852;2022-09-09T02:58:58;-6.14;74.80
65995;HTU21D;52764;51.036;5.852;2022-09-09T03:01:25;18.28;77.23
65995;HTU21D;52764;51.036;5.852;2022-09-09T03:03:51;17.37;77.11
65995;HTU21D;52764;51.036;5.852;2022-09-09T03:06:17;18.14;77.48
65995;HTU21D;52764;51.036;5.852;2022-09-09T03:08:47;-4.81;77.57
65995;HTU21D;52764;51.036;5.852;2022-09-09T03:11:16;18.09;77.82
65995;HTU21D;52764;51.036;5.852;2022-09-09T03:13:42;18.08;77.98
65995;HTU21D;52764;51.036;5.852;2022-09-09T03:16:09;18.04;77.91
65995;HTU21D;52764;51.036;5.852;2022-09-09T03:18:40;18.00;78.01
65995;HTU21D;52764;51.036;5.852;2022-09-09T03:21:06;17.97;78.07
65995;HTU21D;52764;51.036;5.852;2022-09-09T03:23:32;17.96;78.07
65995;HTU21D;52764;51.036;5.852;2022-09-09T03:26:01;17.98;78.15
65995;HTU21D;52764;51.036;5.852;2022-09-09T03:28:36;17.99;78.05
65995;HTU21D;52764;51.036;5.852;2022-09-09T03:31:05;18.04;78.13
65995;HTU21D;52764;51.036;5.852;2022-09-09T03:33:39;18.14;77.66
65995;HTU21D;52764;51.036;5.852;2022-09-09T03:36:07;18.18;77.32
65995;HTU21D;52764;51.036;5.852;2022-09-09T03:38:34;18.24;77.20
65995;HTU21D;52764;51.036;5.852;2022-09-09T03:41:00;18.29;65.93
65995;HTU21D;52764;51.036;5.852;2022-09-09T03:43:28;18.24;76.77
65995;HTU21D;52764;51.036;5.852;2022-09-09T03:45:55;18.22;76.96
65995;HTU21D;52764;51.036;5.852;2022-09-09T03:48:26;17.37;76.83
65995;HTU21D;52764;51.036;5.852;2022-09-09T03:50:54;18.22;76.85
65995;HTU21D;52764;51.036;5.852;2022-09-09T03:53:23;18.23;76.86
65995;HTU21D;52764;51.036;5.852;2022-09-09T03:55:52;18.25;76.67
65995;HTU21D;52764;51.036;5.852;2022-09-09T03:58:22;18.21;74.61
65995;HTU21D;52764;51.036;5.852;2022-09-09T04:01:28;18.24;76.62
65995;HTU21D;52764;51.036;5.852;2022-09-09T04:03:47;18.20;76.78
65995;HTU21D;52764;51.036;5.852;2022-09-09T04:06:13;17.31;76.80
65995;HTU21D;52764;51.036;5.852;2022-09-09T04:08:43;18.21;76.47
65995;HTU21D;52764;51.036;5.852;2022-09-09T04:11:09;18.23;76.74
65995;HTU21D;52764;51.036;5.852;2022-09-09T04:13:38;18.22;76.64
65995;HTU21D;52764;51.036;5.852;2022-09-09T04:16:10;18.21;76.79
65995;HTU21D;52764;51.036;5.852;2022-09-09T04:18:37;18.24;76.78
65995;HTU21D;52764;51.036;5.852;2022-09-09T04:21:03;18.26;76.70
65995;HTU21D;52764;51.036;5.852;2022-09-09T04:23:31;18.32;76.72
65995;HTU21D;52764;51.036;5.852;2022-09-09T04:25:59;-5.71;76.76
65995;HTU21D;52764;51.036;5.852;2022-09-09T04:28:31;18.37;76.50
65995;HTU21D;52764;51.036;5.852;2022-09-09T04:31:05;18.38;76.29
65995;HTU21D;52764;51.036;5.852;2022-09-09T04:33:32;18.38;76.08
65995;HTU21D;52764;51.036;5.852;2022-09-09T04:35:57;18.40;75.88
65995;HTU21D;52764;51.036;5.852;2022-09-09T04:38:25;17.78;75.86
65995;HTU21D;52764;51.036;5.852;2022-09-09T04:40:52;18.39;75.81
65995;HTU21D;52764;51.036;5.852;2022-09-09T04:43:20;18.39;75.94
65995;HTU21D;52764;51.036;5.852;2022-09-09T04:45:48;18.40;75.70
65995;HTU21D;52764;51.036;5.852;2022-09-09T04:48:15;18.39;75.64
65995;HTU21D;52764;51.036;5.852;2022-09-09T04:50:41;18.39;75.70
65995;HTU21D;52764;51.036;5.852;2022-09-09T04:53:09;18.38;75.68
65995;HTU21D;52764;51.036;5.852;2022-09-09T04:55:36;18.36;75.63
65995;HTU21D;52764;51.036;5.852;2022-09-09T04:58:07;18.33;75.52
65995;HTU21D;52764;51.036;5.852;2022-09-09T05:00:37;18.26;75.74
65995;HTU21D;52764;51.036;5.852;2022-09-09T05:03:06;18.23;75.86
65995;HTU21D;52764;51.036;5.852;2022-09-09T05:05:35;-4.57;79.75
65995;HTU21D;52764;51.036;5.852;2022-09-09T05:08:06;18.18;75.88
65995;HTU21D;52764;51.036;5.852;2022-09-09T05:10:33;-4.68;64.26
65995;HTU21D;52764;51.036;5.852;2022-09-09T05:12:59;18.06;76.02
65995;HTU21D;52764;51.036;5.852;2022-09-09T05:15:28;18.11;76.05
65995;HTU21D;52764;51.036;5.852;2022-09-09T05:18:01;18.06;75.92
65995;HTU21D;52764;51.036;5.852;2022-09-09T05:20:30;18.12;79.58
65995;HTU21D;52764;51.036;5.852;2022-09-09T05:22:56;18.12;75.85
65995;HTU21D;52764;51.036;5.852;2022-09-09T05:25:25;18.18;75.86
65995;HTU21D;52764;51.036;5.852;2022-09-09T05:27:53;18.23;75.60
65995;HTU21D;52764;51.036;5.852;2022-09-09T05:30:20;18.27;75.49
65995;HTU21D;52764;51.036;5.852;2022-09-09T05:32:45;18.34;75.24
65995;HTU21D;52764;51.036;5.852;2022-09-09T05:35:13;18.36;75.15
65995;HTU21D;52764;51.036;5.852;2022-09-09T05:37:38;-4.25;74.88
65995;HTU21D;52764;51.036;5.852;2022-09-09T05:40:06;17.84;74.73
65995;HTU21D;52764;51.036;5.852;2022-09-09T05:42:32;18.40;61.60
65995;HTU21D;52764;51.036;5.852;2022-09-09T05:44:58;18.38;74.71
65995;HTU21D;52764;51.036;5.852;2022-09-09T05:47:24;18.48;74.83
65995;HTU21D;52764;51.036;5.852;2022-09-09T05:49:55;18.61;74.48
65995;HTU21D;52764;51.036;5.852;2022-09-09T05:52:21;18.82;73.87
65995;HTU21D;52764;51.036;5.852;2022-09-09T05:54:49;18.97;73.35
65995;HTU21D;52764;51.036;5.852;2022-09-09T05:57:14;19.12;72.77
65995;HTU21D;52764;51.036;5.852;2022-09-09T05:59:50;19.47;71.98
65995;HTU21D;52764;51.036;5.852;2022-09-09T06:02:16;19.62;71.39
65995;HTU21D;52764;51.036;5.852;2022-09-09T06:04:42;19.36;71.02
65995;HTU21D;52764;51.036;5.852;2022-09-09T06:07:08;19.35;70.75
65995;HTU21D;52764;51.036;5.852;2022-09-09T06:09:34;19.32;70.84
65995;HTU21D;52764;51.036;5.852;2022-09-09T06:12:01;19.28;70.62
65995;HTU21D;52764;51.036;5.852;2022-09-09T06:14:27;19.23;70.76
65995;HTU21D;52764;51.036;5.852;2022-09-09T06:16:55;19.25;70.89
65995;HTU21D;52764;51.036;5.852;2022-09-09T06:19:25;19.75;70.86
65995;HTU21D;52764;51.036;5.852;2022-09-09T06:21:53;20.11;69.14
65995;HTU21D;52764;51.036;5.852;2022-09-09T06:24:18;20.28;68.17
65995;HTU21D;52764;51.036;5.852;2022-09-09T06:26:45;20.44;67.43
65995;HTU21D;52764;51.036;5.852;2022-09-09T06:29:15;20.46;67.07
65995;HTU21D;52764;51.036;5.852;2022-09-09T06:31:41;21.81;67.27
65995;HTU21D;52764;51.036;5.852;2022-09-09T06:34:14;20.39;67.17
65995;HTU21D;52764;51.036;5.852;2022-09-09T06:36:45;20.39;67.28
65995;HTU21D;52764;51.036;5.852;2022-09-09T06:39:12;20.35;67.04
65995;HTU21D;52764;51.036;5.852;2022-09-09T06:41:39;20.39;67.10
65995;HTU21D;52764;51.036;5.852;2022-09-09T06:44:09;20.36;67.04
65995;HTU21D;52764;51.036;5.852;2022-09-09T06:46:40;20.33;66.67
65995;HTU21D;52764;51.036;5.852;2022-09-09T06:49:08;20.21;67.23
65995;HTU21D;52764;51.036;5.852;2022-09-09T06:51:37;20.10;78.51
65995;HTU21D;52764;51.036;5.852;2022-09-09T06:54:09;20.01;67.74
65995;HTU21D;52764;51.036;5.852;2022-09-09T06:56:38;19.98;67.76
65995;HTU21D;52764;51.036;5.852;2022-09-09T06:59:11;19.97;67.94
65995;HTU21D;52764;51.036;5.852;2022-09-09T07:01:40;20.04;67.84
65995;HTU21D;52764;51.036;5.852;2022-09-09T07:04:10;20.04;67.36
65995;HTU21D;52764;51.036;5.852;2022-09-09T07:06:41;20.13;78.09
65995;HTU21D;52764;51.036;5.852;2022-09-09T07:09:12;20.27;65.57
65995;HTU21D;52764;51.036;5.852;2022-09-09T07:11:46;20.75;66.85
65995;HTU21D;52764;51.036;5.852;2022-09-09T07:14:14;23.82;74.62
65995;HTU21D;52764;51.036;5.852;2022-09-09T07:16:43;22.54;69.43
65995;HTU21D;52764;51.036;5.852;2022-09-09T07:19:10;5.96;60.12
65995;HTU21D;52764;51.036;5.852;2022-09-09T07:21:37;24.17;57.78
65995;HTU21D;52764;51.036;5.852;2022-09-09T07:24:03;20.73;55.60
65995;HTU21D;52764;51.036;5.852;2022-09-09T07:26:33;25.60;54.39
65995;HTU21D;52764;51.036;5.852;2022-09-09T07:29:01;26.19;50.71
65995;HTU21D;52764;51.036;5.852;2022-09-09T07:31:31;11.86;51.48
65995;HTU21D;52764;51.036;5.852;2022-09-09T07:33:58;26.83;49.63
65995;HTU21D;52764;51.036;5.852;2022-09-09T07:36:30;27.38;39.85
65995;HTU21D;52764;51.036;5.852;2022-09-09T07:39:05;27.71;47.34
65995;HTU21D;52764;51.036;5.852;2022-09-09T07:41:35;27.97;46.35
65995;HTU21D;52764;51.036;5.852;2022-09-09T07:44:07;28.04;45.21
65995;HTU21D;52764;51.036;5.852;2022-09-09T07:46:34;28.63;45.72
65995;HTU21D;52764;51.036;5.852;2022-09-09T07:49:00;15.27;44.96
65995;HTU21D;52764;51.036;5.852;2022-09-09T07:51:32;28.33;31.15
65995;HTU21D;52764;51.036;5.852;2022-09-09T07:54:01;28.35;42.93
65995;HTU21D;52764;51.036;5.852;2022-09-09T07:56:30;27.80;43.74
65995;HTU21D;52764;51.036;5.852;2022-09-09T07:58:58;23.85;44.89
65995;HTU21D;52764;51.036;5.852;2022-09-09T08:01:31;21.36;30.53
65995;HTU21D;52764;51.036;5.852;2022-09-09T08:04:03;25.86;47.18
65995;HTU21D;52764;51.036;5.852;2022-09-09T08:06:34;25.30;48.59
65995;HTU21D;52764;51.036;5.852;2022-09-09T08:09:00;24.85;49.95
65995;HTU21D;52764;51.036;5.852;2022-09-09T08:11:28;18.53;49.96
65995;HTU21D;52764;51.036;5.852;2022-09-09T08:13:56;23.96;51.24
65995;HTU21D;52764;51.036;5.852;2022-09-09T08:16:28;22.86;52.07
65995;HTU21D;52764;51.036;5.852;2022-09-09T08:18:55;27.84;52.64
65995;HTU21D;52764;51.036;5.852;2022-09-09T08:21:23;23.20;53.31
65995;HTU21D;52764;51.036;5.852;2022-09-09T08:23:52;23.11;53.58
65995;HTU21D;52764;51.036;5.852;2022-09-09T08:26:22;5.33;54.26
65995;HTU21D;52764;51.036;5.852;2022-09-09T08:28:53;27.21;54.10
65995;HTU21D;52764;51.036;5.852;2022-09-09T08:31:34;22.66;54.07
65995;HTU21D;52764;51.036;5.852;2022-09-09T08:34:01;22.88;54.72
65995;HTU21D;52764;51.036;5.852;2022-09-09T08:36:33;22.90;54.01
65995;HTU21D;52764;51.036;5.852;2022-09-09T08:39:00;22.99;55.07
65995;HTU21D;52764;51.036;5.852;2022-09-09T08:50:13;23.75;53.35
65995;HTU21D;52764;51.036;5.852;2022-09-09T08:57:50;23.87;52.28
65995;HTU21D;52764;51.036;5.852;2022-09-09T09:00:17;28.83;52.22
65995;HTU21D;52764;51.036;5.852;2022-09-09T09:05:36;24.13;51.78
65995;HTU21D;52764;51.036;5.852;2022-09-09T09:10:46;23.91;52.14
65995;HTU21D;52764;51.036;5.852;2022-09-09T09:13:43;23.70;52.90
65995;HTU21D;52764;51.036;5.852;2022-09-09T09:16:26;23.36;50.35
65995;HTU21D;52764;51.036;5.852;2022-09-09T09:18:55;23.08;53.90
65995;HTU21D;52764;51.036;5.852;2022-09-09T09:21:40;22.90;54.45
65995;HTU21D;52764;51.036;5.852;2022-09-09T09:24:22;22.81;53.15
65995;HTU21D;52764;51.036;5.852;2022-09-09T09:26:50;4.69;54.68
65995;HTU21D;52764;51.036;5.852;2022-09-09T09:29:19;22.98;54.77
65995;HTU21D;52764;51.036;5.852;2022-09-09T09:31:51;5.60;54.40
65995;HTU21D;52764;51.036;5.852;2022-09-09T09:34:17;23.46;53.60
65995;HTU21D;52764;51.036;5.852;2022-09-09T09:36:53;27.86;53.59
65995;HTU21D;52764;51.036;5.852;2022-09-09T09:39:30;23.23;54.53
65995;HTU21D;52764;51.036;5.852;2022-09-09T09:42:10;23.07;55.20
65995;HTU21D;52764;51.036;5.852;2022-09-09T09:44:40;22.94;55.60
65995;HTU21D;52764;51.036;5.852;2022-09-09T09:49:54;26.72;55.60
65995;HTU21D;52764;51.036;5.852;2022-09-09T09:52:25;4.91;55.24
65995;HTU21D;52764;51.036;5.852;2022-09-09T09:54:52;22.97;54.78
65995;HTU21D;52764;51.036;5.852;2022-09-09T09:57:28;21.36;54.95
65995;HTU21D;52764;51.036;5.852;2022-09-09T10:00:22;4.72;54.94
65995;HTU21D;52764;51.036;5.852;2022-09-09T10:03:01;22.77;55.73
65995;HTU21D;52764;51.036;5.852;2022-09-09T10:05:32;22.53;56.60
65995;HTU21D;52764;51.036;5.852;2022-09-09T10:08:09;22.14;58.90
65995;HTU21D;52764;51.036;5.852;2022-09-09T10:16:54;22.54;59.64
65995;HTU21D;52764;51.036;5.852;2022-09-09T10:19:34;29.72;58.75
65995;HTU21D;52764;51.036;5.852;2022-09-09T10:25:01;23.14;58.25
65995;HTU21D;52764;51.036;5.852;2022-09-09T10:30:22;23.24;55.87
65995;HTU21D;52764;51.036;5.852;2022-09-09T10:33:02;21.98;55.49
65995;HTU21D;52764;51.036;5.852;2022-09-09T10:35:40;23.34;55.06
65995;HTU21D;52764;51.036;5.852;2022-09-09T10:41:15;23.24;54.81
65995;HTU21D;52764;51.036;5.852;2022-09-09T10:51:54;23.28;54.46
65995;HTU21D;52764;51.036;5.852;2022-09-09T10:57:05;23.15;54.49
65995;HTU21D;52764;51.036;5.852;2022-09-09T10:59:44;23.06;54.71
65995;HTU21D;52764;51.036;5.852;2022-09-09T11:02:20;22.86;55.27
65995;HTU21D;52764;51.036;5.852;2022-09-09T11:07:39;22.71;58.16
65995;HTU21D;52764;51.036;5.852;2022-09-09T11:10:58;22.28;60.73
65995;HTU21D;52764;51.036;5.852;2022-09-09T11:13:39;21.82;62.95
65995;HTU21D;52764;51.036;5.852;2022-09-09T11:16:31;21.62;64.40
65995;HTU21D;52764;51.036;5.852;2022-09-09T11:19:05;21.64;65.16
65995;HTU21D;52764;51.036;5.852;2022-09-09T11:21:42;2.25;65.95
65995;HTU21D;52764;51.036;5.852;2022-09-09T11:24:18;21.66;66.53
65995;HTU21D;52764;51.036;5.852;2022-09-09T11:26:55;21.75;67.23
65995;HTU21D;52764;51.036;5.852;2022-09-09T11:30:02;21.82;66.75
65995;HTU21D;52764;51.036;5.852;2022-09-09T11:35:21;22.11;66.29
65995;HTU21D;52764;51.036;5.852;2022-09-09T11:40:40;22.01;64.88
65995;HTU21D;52764;51.036;5.852;2022-09-09T11:43:13;22.92;63.73
65995;HTU21D;52764;51.036;5.852;2022-09-09T11:45:42;23.21;62.34
65995;HTU21D;52764;51.036;5.852;2022-09-09T11:48:40;23.51;61.13
65995;HTU21D;52764;51.036;5.852;2022-09-09T11:53:56;23.77;59.85
65995;HTU21D;52764;51.036;5.852;2022-09-09T11:56:43;28.61;59.01
65995;HTU21D;52764;51.036;5.852;2022-09-09T11:59:25;23.90;58.44
65995;HTU21D;52764;51.036;5.852;2022-09-09T12:01:58;24.04;58.71
65995;HTU21D;52764;51.036;5.852;2022-09-09T12:17:27;23.92;58.87
65995;HTU21D;52764;51.036;5.852;2022-09-09T12:28:18;23.95;57.23
65995;HTU21D;52764;51.036;5.852;2022-09-09T12:33:38;24.24;56.19
65995;HTU21D;52764;51.036;5.852;2022-09-09T12:36:16;24.25;56.25
65995;HTU21D;52764;51.036;5.852;2022-09-09T12:38:44;24.11;56.57
65995;HTU21D;52764;51.036;5.852;2022-09-09T12:41:27;23.79;57.98
65995;HTU21D;52764;51.036;5.852;2022-09-09T12:44:05;27.95;59.01
65995;HTU21D;52764;51.036;5.852;2022-09-09T12:46:43;23.32;60.08
65995;HTU21D;52764;51.036;5.852;2022-09-09T12:52:07;5.10;61.43
65995;HTU21D;52764;51.036;5.852;2022-09-09T12:54:36;23.18;61.02
65995;HTU21D;52764;51.036;5.852;2022-09-09T12:57:04;23.16;61.09
65995;HTU21D;52764;51.036;5.852;2022-09-09T12:59:42;23.23;60.88
65995;HTU21D;52764;51.036;5.852;2022-09-09T13:04:45;26.38;60.54
65995;HTU21D;52764;51.036;5.852;2022-09-09T13:07:13;21.90;62.20
65995;HTU21D;52764;51.036;5.852;2022-09-09T13:09:42;21.23;62.95
65995;HTU21D;52764;51.036;5.852;2022-09-09T13:12:17;22.56;65.08
65995;HTU21D;52764;51.036;5.852;2022-09-09T13:14:51;20.60;66.01
65995;HTU21D;52764;51.036;5.852;2022-09-09T13:17:23;20.45;66.42
65995;HTU21D;52764;51.036;5.852;2022-09-09T13:19:50;20.35;65.43
65995;HTU21D;52764;51.036;5.852;2022-09-09T13:22:34;20.27;67.08
65995;HTU21D;52764;51.036;5.852;2022-09-09T13:25:16;21.36;68.39
65995;HTU21D;52764;51.036;5.852;2022-09-09T13:27:53;20.18;81.17
65995;HTU21D;52764;51.036;5.852;2022-09-09T13:36:09;20.27;82.65
65995;HTU21D;52764;51.036;5.852;2022-09-09T13:38:40;20.30;69.50
65995;HTU21D;52764;51.036;5.852;2022-09-09T13:43:54;20.53;69.39
65995;HTU21D;52764;51.036;5.852;2022-09-09T13:49:00;20.73;69.33
65995;HTU21D;52764;51.036;5.852;2022-09-09T13:54:03;1.07;70.16
65995;HTU21D;52764;51.036;5.852;2022-09-09T13:56:34;21.32;69.92
65995;HTU21D;52764;51.036;5.852;2022-09-09T13:59:02;21.60;69.47
65995;HTU21D;52764;51.036;5.852;2022-09-09T14:01:28;21.88;69.48
65995;HTU21D;52764;51.036;5.852;2022-09-09T14:03:54;22.19;68.58
65995;HTU21D;52764;51.036;5.852;2022-09-09T14:06:21;22.46;67.57
65995;HTU21D;52764;51.036;5.852;2022-09-09T14:08:50;23.15;62.70
65995;HTU21D;52764;51.036;5.852;2022-09-09T14:11:17;5.19;66.21
65995;HTU21D;52764;51.036;5.852;2022-09-09T14:13:42;23.34;65.97
65995;HTU21D;52764;51.036;5.852;2022-09-09T14:16:08;23.47;65.03
65995;HTU21D;52764;51.036;5.852;2022-09-09T14:18:35;23.54;65.01
65995;HTU21D;52764;51.036;5.852;2022-09-09T14:21:01;23.65;64.87
65995;HTU21D;52764;51.036;5.852;2022-09-09T14:23:27;23.71;64.68
65995;HTU21D;52764;51.036;5.852;2022-09-09T14:25:55;6.54;63.66
65995;HTU21D;52764;51.036;5.852;2022-09-09T14:28:21;23.81;62.76
65995;HTU21D;52764;51.036;5.852;2022-09-09T14:30:47;23.81;66.91
65995;HTU21D;52764;51.036;5.852;2022-09-09T14:33:16;23.88;62.71
65995;HTU21D;52764;51.036;5.852;2022-09-09T14:35:43;23.89;61.09
65995;HTU21D;52764;51.036;5.852;2022-09-09T14:38:09;23.91;62.57
65995;HTU21D;52764;51.036;5.852;2022-09-09T14:40:37;28.85;60.39
65995;HTU21D;52764;51.036;5.852;2022-09-09T14:43:04;23.79;61.54
65995;HTU21D;52764;51.036;5.852;2022-09-09T14:45:31;23.68;66.43
65995;HTU21D;52764;51.036;5.852;2022-09-09T14:47:57;23.72;61.12
65995;HTU21D;52764;51.036;5.852;2022-09-09T14:50:23;23.75;61.37
65995;HTU21D;52764;51.036;5.852;2022-09-09T14:52:49;23.81;58.12
65995;HTU21D;52764;51.036;5.852;2022-09-09T14:55:16;28.65;61.13
65995;HTU21D;52764;51.036;5.852;2022-09-09T14:57:42;23.85;61.59
65995;HTU21D;52764;51.036;5.852;2022-09-09T15:04:04;23.82;59.97
65995;HTU21D;52764;51.036;5.852;2022-09-09T15:06:34;23.79;59.66
65995;HTU21D;52764;51.036;5.852;2022-09-09T15:09:01;23.75;59.85
65995;HTU21D;52764;51.036;5.852;2022-09-09T15:11:30;28.44;64.27
65995;HTU21D;52764;51.036;5.852;2022-09-09T15:13:57;23.68;60.34
65995;HTU21D;52764;51.036;5.852;2022-09-09T15:16:26;23.71;60.66
65995;HTU21D;52764;51.036;5.852;2022-09-09T15:18:54;23.76;60.34
65995;HTU21D;52764;51.036;5.852;2022-09-09T15:21:24;6.58;59.97
65995;HTU21D;52764;51.036;5.852;2022-09-09T15:23:50;23.86;59.70
65995;HTU21D;52764;51.036;5.852;2022-09-09T15:26:17;23.84;59.25
65995;HTU21D;52764;51.036;5.852;2022-09-09T15:28:45;28.53;59.35
65995;HTU21D;52764;51.036;5.852;2022-09-09T15:31:15;23.96;59.01
65995;HTU21D;52764;51.036;5.852;2022-09-09T15:33:57;23.97;58.24
65995;HTU21D;52764;51.036;5.852;2022-09-09T15:36:40;24.04;58.41
65995;HTU21D;52764;51.036;5.852;2022-09-09T15:39:09;24.06;58.05
65995;HTU21D;52764;51.036;5.852;2022-09-09T15:41:38;24.02;58.07
65995;HTU21D;52764;51.036;5.852;2022-09-09T15:44:05;23.94;57.12
65995;HTU21D;52764;51.036;5.852;2022-09-09T15:46:33;24.11;56.69
65995;HTU21D;52764;51.036;5.852;2022-09-09T15:49:11;23.92;56.47
65995;HTU21D;52764;51.036;5.852;2022-09-09T15:51:44;23.91;57.19
65995;HTU21D;52764;51.036;5.852;2022-09-09T15:54:20;23.87;57.27
65995;HTU21D;52764;51.036;5.852;2022-09-09T15:56:54;23.84;57.25
65995;HTU21D;52764;51.036;5.852;2022-09-09T15:59:26;23.81;57.35
65995;HTU21D;52764;51.036;5.852;2022-09-09T16:01:53;6.63;57.48
65995;HTU21D;52764;51.036;5.852;2022-09-09T16:04:21;23.82;57.26
65995;HTU21D;52764;51.036;5.852;2022-09-09T16:06:52;23.83;57.35
65995;HTU21D;52764;51.036;5.852;2022-09-09T16:09:18;28.50;57.64
65995;HTU21D;52764;51.036;5.852;2022-09-09T16:11:45;28.42;57.74
65995;HTU21D;52764;51.036;5.852;2022-09-09T16:14:12;24.49;58.61
65995;HTU21D;52764;51.036;5.852;2022-09-09T16:16:38;23.71;57.46
65995;HTU21D;52764;51.036;5.852;2022-09-09T16:19:06;23.64;57.26
65995;HTU21D;52764;51.036;5.852;2022-09-09T16:21:36;23.58;57.18
65995;HTU21D;52764;51.036;5.852;2022-09-09T16:24:04;23.47;57.29
65995;HTU21D;52764;51.036;5.852;2022-09-09T16:26:34;23.34;57.48
65995;HTU21D;52764;51.036;5.852;2022-09-09T16:29:01;5.49;58.08
65995;HTU21D;52764;51.036;5.852;2022-09-09T16:31:29;23.18;58.28
65995;HTU21D;52764;51.036;5.852;2022-09-09T16:33:55;23.32;58.37
65995;HTU21D;52764;51.036;5.852;2022-09-09T16:36:26;27.60;58.26
65995;HTU21D;52764;51.036;5.852;2022-09-09T16:38:56;23.30;57.90
65995;HTU21D;52764;51.036;5.852;2022-09-09T16:41:23;23.30;58.27
65995;HTU21D;52764;51.036;5.852;2022-09-09T16:44:00;23.31;58.09
65995;HTU21D;52764;51.036;5.852;2022-09-09T16:46:29;23.16;57.90
65995;HTU21D;52764;51.036;5.852;2022-09-09T16:48:57;23.10;60.76
65995;HTU21D;52764;51.036;5.852;2022-09-09T16:51:29;23.03;58.52
65995;HTU21D;52764;51.036;5.852;2022-09-09T16:53:59;26.90;58.84
65995;HTU21D;52764;51.036;5.852;2022-09-09T16:56:27;4.84;58.69
65995;HTU21D;52764;51.036;5.852;2022-09-09T16:58:58;22.73;58.88
65995;HTU21D;52764;51.036;5.852;2022-09-09T17:01:26;21.96;60.38
65995;HTU21D;52764;51.036;5.852;2022-09-09T17:03:57;22.40;58.44
65995;HTU21D;52764;51.036;5.852;2022-09-09T17:06:23;22.25;58.62
65995;HTU21D;52764;51.036;5.852;2022-09-09T17:08:54;22.12;58.77
65995;HTU21D;52764;51.036;5.852;2022-09-09T17:11:20;21.99;59.12
65995;HTU21D;52764;51.036;5.852;2022-09-09T17:13:47;21.93;59.43
65995;HTU21D;52764;51.036;5.852;2022-09-09T17:16:16;21.87;59.65
65995;HTU21D;52764;51.036;5.852;2022-09-09T17:18:43;21.82;60.22
65995;HTU21D;52764;51.036;5.852;2022-09-09T17:21:12;21.80;60.65
65995;HTU21D;52764;51.036;5.852;2022-09-09T17:23:40;21.80;60.92
65995;HTU21D;52764;51.036;5.852;2022-09-09T17:26:09;21.75;61.09
65995;HTU21D;52764;51.036;5.852;2022-09-09T17:28:39;21.70;66.46
65995;HTU21D;52764;51.036;5.852;2022-09-09T17:31:07;21.67;61.84
65995;HTU21D;52764;51.036;5.852;2022-09-09T17:33:36;21.62;62.27
65995;HTU21D;52764;51.036;5.852;2022-09-09T17:36:07;21.62;62.53
65995;HTU21D;52764;51.036;5.852;2022-09-09T17:38:33;21.59;62.83
65995;HTU21D;52764;51.036;5.852;2022-09-09T17:41:14;21.55;62.99
65995;HTU21D;52764;51.036;5.852;2022-09-09T17:43:41;21.55;63.21
65995;HTU21D;52764;51.036;5.852;2022-09-09T17:48:42;21.43;63.70
65995;HTU21D;52764;51.036;5.852;2022-09-09T17:51:13;22.99;64.10
65995;HTU21D;52764;51.036;5.852;2022-09-09T17:53:44;21.37;64.13
65995;HTU21D;52764;51.036;5.852;2022-09-09T17:56:12;21.33;64.24
65995;HTU21D;52764;51.036;5.852;2022-09-09T17:58:39;21.31;64.47
65995;HTU21D;52764;51.036;5.852;2022-09-09T18:01:10;23.51;64.18
65995;HTU21D;52764;51.036;5.852;2022-09-09T18:03:41;21.24;64.56
65995;HTU21D;52764;51.036;5.852;2022-09-09T18:06:10;21.24;64.76
65995;HTU21D;52764;51.036;5.852;2022-09-09T18:08:46;21.34;65.05
65995;HTU21D;52764;51.036;5.852;2022-09-09T18:11:13;21.19;65.05